sensor_id;sensor_type;location;lat;lon;timestamp;temperature;humidity
33803;DHT22;20110;53.120;5.786;2023-03-16T00:00:49;2.10;99.90
33803;DHT22;20110;53.120;5.786;2023-03-16T00:03:15;2.10;99.90
33803;DHT22;20110;53.120;5.786;2023-03-16T00:05:52;2.20;99.90
33803;DHT22;20110;53.120;5.786;2023-03-16T00:08:19;2.20;99.90
33803;DHT22;20110;53.120;5.786;2023-03-16T00:10:45;2.20;99.90
33803;DHT22;20110;53.120;5.786;2023-03-16T00:13:16;2.20;99.90
33803;DHT22;20110;53.120;5.786;2023-03-16T00:15:52;2.10;99.90
33803;DHT22;20110;53.120;5.786;2023-03-16T00:18:19;2.10;99.90
33803;DHT22;20110;53.120;5.786;2023-03-16T00:20:55;2.20;99.90
33803;DHT22;20110;53.120;5.786;2023-03-16T00:23:24;2.10;99.90
33803;DHT22;20110;53.120;5.786;2023-03-16T00:25:58;2.00;99.90
33803;DHT22;20110;53.120;5.786;2023-03-16T00:28:26;2.00;99.90
33803;DHT22;20110;53.120;5.786;2023-03-16T00:30:52;2.10;99.90
33803;DHT22;20110;53.120;5.786;2023-03-16T00:33:24;2.10;99.90
33803;DHT22;20110;53.120;5.786;2023-03-16T00:35:50;2.10;99.90
33803;DHT22;20110;53.120;5.786;2023-03-16T00:38:28;2.20;99.90
33803;DHT22;20110;53.120;5.786;2023-03-16T00:41:02;2.20;99.90
33803;DHT22;20110;53.120;5.786;2023-03-16T00:43:31;2.10;99.90
33803;DHT22;20110;53.120;5.786;2023-03-16T00:46:06;2.10;99.90
33803;DHT22;20110;53.120;5.786;2023-03-16T00:48:34;2.10;99.90
33803;DHT22;20110;53.120;5.786;2023-03-16T00:51:02;2.10;99.90
33803;DHT22;20110;53.120;5.786;2023-03-16T00:53:32;2.10;99.90
33803;DHT22;20110;53.120;5.786;2023-03-16T00:55:59;2.10;99.90
33803;DHT22;20110;53.120;5.786;2023-03-16T00:58:32;2.10;99.90
33803;DHT22;20110;53.120;5.786;2023-03-16T01:01:12;2.10;99.90
33803;DHT22;20110;53.120;5.786;2023-03-16T01:03:43;2.10;99.90
33803;DHT22;20110;53.120;5.786;2023-03-16T01:06:16;2.10;99.90
33803;DHT22;20110;53.120;5.786;2023-03-16T01:08:43;2.10;99.90
33803;DHT22;20110;53.120;5.786;2023-03-16T01:11:11;2.10;99.90
33803;DHT22;20110;53.120;5.786;2023-03-16T01:13:41;2.20;99.90
33803;DHT22;20110;53.120;5.786;2023-03-16T01:16:08;2.10;99.90
33803;DHT22;20110;53.120;5.786;2023-03-16T01:18:35;2.10;99.90
33803;DHT22;20110;53.120;5.786;2023-03-16T01:21:02;2.10;99.90
33803;DHT22;20110;53.120;5.786;2023-03-16T01:23:34;2.10;99.90
33803;DHT22;20110;53.120;5.786;2023-03-16T01:26:01;2.20;99.90
33803;DHT22;20110;53.120;5.786;2023-03-16T01:28:29;2.20;99.90
33803;DHT22;20110;53.120;5.786;2023-03-16T01:31:03;2.20;99.90
33803;DHT22;20110;53.120;5.786;2023-03-16T01:33:34;2.20;99.90
33803;DHT22;20110;53.120;5.786;2023-03-16T01:36:04;2.10;99.90
33803;DHT22;20110;53.120;5.786;2023-03-16T01:38:32;2.20;99.90
33803;DHT22;20110;53.120;5.786;2023-03-16T01:40:58;2.20;99.90
33803;DHT22;20110;53.120;5.786;2023-03-16T01:43:26;2.40;99.90
33803;DHT22;20110;53.120;5.786;2023-03-16T01:51:09;2.30;99.90
33803;DHT22;20110;53.120;5.786;2023-03-16T01:53:40;2.30;99.90
33803;DHT22;20110;53.120;5.786;2023-03-16T01:56:12;2.30;99.90
33803;DHT22;20110;53.120;5.786;2023-03-16T01:58:42;2.30;99.90
33803;DHT22;20110;53.120;5.786;2023-03-16T02:01:11;2.40;99.90
33803;DHT22;20110;53.120;5.786;2023-03-16T02:03:39;2.40;99.90
33803;DHT22;20110;53.120;5.786;2023-03-16T02:06:11;2.50;99.90
33803;DHT22;20110;53.120;5.786;2023-03-16T02:08:42;2.50;99.90
33803;DHT22;20110;53.120;5.786;2023-03-16T02:11:10;2.50;99.90
33803;DHT22;20110;53.120;5.786;2023-03-16T02:13:37;2.50;99.90
33803;DHT22;20110;53.120;5.786;2023-03-16T02:16:06;2.50;99.90
33803;DHT22;20110;53.120;5.786;2023-03-16T02:18:33;2.50;99.90
33803;DHT22;20110;53.120;5.786;2023-03-16T02:23:52;2.50;99.90
33803;DHT22;20110;53.120;5.786;2023-03-16T02:26:44;2.50;99.90
33803;DHT22;20110;53.120;5.786;2023-03-16T02:32:09;2.50;99.90
33803;DHT22;20110;53.120;5.786;2023-03-16T02:34:36;2.60;99.90
33803;DHT22;20110;53.120;5.786;2023-03-16T02:37:03;2.50;99.90
33803;DHT22;20110;53.120;5.786;2023-03-16T02:39:30;2.60;99.90
33803;DHT22;20110;53.120;5.786;2023-03-16T02:41:56;2.50;99.90
33803;DHT22;20110;53.120;5.786;2023-03-16T02:44:29;2.60;99.90
33803;DHT22;20110;53.120;5.786;2023-03-16T02:47:04;2.50;99.90
33803;DHT22;20110;53.120;5.786;2023-03-16T02:49:43;2.50;99.90
33803;DHT22;20110;53.120;5.786;2023-03-16T02:52:10;2.60;99.90
33803;DHT22;20110;53.120;5.786;2023-03-16T02:54:38;2.60;99.90
33803;DHT22;20110;53.120;5.786;2023-03-16T02:57:04;2.60;99.90
33803;DHT22;20110;53.120;5.786;2023-03-16T02:59:30;2.60;99.90
33803;DHT22;20110;53.120;5.786;2023-03-16T03:01:57;2.60;99.90
33803;DHT22;20110;53.120;5.786;2023-03-16T03:04:23;2.60;99.90
33803;DHT22;20110;53.120;5.786;2023-03-16T03:06:50;2.70;99.90
33803;DHT22;20110;53.120;5.786;2023-03-16T03:09:17;2.70;99.90
33803;DHT22;20110;53.120;5.786;2023-03-16T03:11:44;2.70;99.90
33803;DHT22;20110;53.120;5.786;2023-03-16T03:14:13;2.60;99.90
33803;DHT22;20110;53.120;5.786;2023-03-16T03:16:41;2.70;99.90
33803;DHT22;20110;53.120;5.786;2023-03-16T03:19:11;2.80;99.90
33803;DHT22;20110;53.120;5.786;2023-03-16T03:21:38;2.80;99.90
33803;DHT22;20110;53.120;5.786;2023-03-16T03:24:06;2.70;99.90
33803;DHT22;20110;53.120;5.786;2023-03-16T03:26:32;2.80;99.90
33803;DHT22;20110;53.120;5.786;2023-03-16T03:28:58;2.90;99.90
33803;DHT22;20110;53.120;5.786;2023-03-16T03:31:23;2.80;99.90
33803;DHT22;20110;53.120;5.786;2023-03-16T03:33:49;2.80;99.90
33803;DHT22;20110;53.120;5.786;2023-03-16T03:36:15;2.80;99.90
33803;DHT22;20110;53.120;5.786;2023-03-16T03:38:41;2.80;99.90
33803;DHT22;20110;53.120;5.786;2023-03-16T03:41:08;2.90;99.90
33803;DHT22;20110;53.120;5.786;2023-03-16T03:43:34;2.80;99.90
33803;DHT22;20110;53.120;5.786;2023-03-16T03:46:01;2.80;99.90
33803;DHT22;20110;53.120;5.786;2023-03-16T03:48:28;2.70;99.90
33803;DHT22;20110;53.120;5.786;2023-03-16T03:50:54;2.70;99.90
33803;DHT22;20110;53.120;5.786;2023-03-16T03:53:20;2.80;99.90
33803;DHT22;20110;53.120;5.786;2023-03-16T03:55:46;2.80;99.90
33803;DHT22;20110;53.120;5.786;2023-03-16T03:58:14;2.70;99.90
33803;DHT22;20110;53.120;5.786;2023-03-16T04:00:39;2.80;99.90
33803;DHT22;20110;53.120;5.786;2023-03-16T04:03:05;2.70;99.90
33803;DHT22;20110;53.120;5.786;2023-03-16T04:05:31;2.80;99.90
33803;DHT22;20110;53.120;5.786;2023-03-16T04:07:57;2.80;99.90
33803;DHT22;20110;53.120;5.786;2023-03-16T04:10:27;2.80;99.90
33803;DHT22;20110;53.120;5.786;2023-03-16T04:12:56;2.70;99.90
33803;DHT22;20110;53.120;5.786;2023-03-16T04:15:23;2.70;99.90
33803;DHT22;20110;53.120;5.786;2023-03-16T04:17:49;2.70;99.90
33803;DHT22;20110;53.120;5.786;2023-03-16T04:20:15;2.70;99.90
33803;DHT22;20110;53.120;5.786;2023-03-16T04:22:45;2.70;99.90
33803;DHT22;20110;53.120;5.786;2023-03-16T04:25:13;2.60;99.90
33803;DHT22;20110;53.120;5.786;2023-03-16T04:27:41;2.50;99.90
33803;DHT22;20110;53.120;5.786;2023-03-16T04:30:10;2.60;99.90
33803;DHT22;20110;53.120;5.786;2023-03-16T04:32:38;2.60;99.90
33803;DHT22;20110;53.120;5.786;2023-03-16T04:35:06;2.50;99.90
33803;DHT22;20110;53.120;5.786;2023-03-16T04:37:32;2.60;99.90
33803;DHT22;20110;53.120;5.786;2023-03-16T04:39:59;2.50;99.90
33803;DHT22;20110;53.120;5.786;2023-03-16T04:42:25;2.50;99.90
33803;DHT22;20110;53.120;5.786;2023-03-16T04:44:51;2.50;99.90
33803;DHT22;20110;53.120;5.786;2023-03-16T04:47:17;2.50;99.90
33803;DHT22;20110;53.120;5.786;2023-03-16T04:49:42;2.40;99.90
33803;DHT22;20110;53.120;5.786;2023-03-16T04:52:09;2.60;99.90
33803;DHT22;20110;53.120;5.786;2023-03-16T04:54:35;2.50;99.90
33803;DHT22;20110;53.120;5.786;2023-03-16T04:57:01;2.50;99.90
33803;DHT22;20110;53.120;5.786;2023-03-16T04:59:30;2.50;99.90
33803;DHT22;20110;53.120;5.786;2023-03-16T05:01:56;2.40;99.90
33803;DHT22;20110;53.120;5.786;2023-03-16T05:04:22;2.50;99.90
33803;DHT22;20110;53.120;5.786;2023-03-16T05:06:49;2.40;99.90
33803;DHT22;20110;53.120;5.786;2023-03-16T05:09:16;2.40;99.90
33803;DHT22;20110;53.120;5.786;2023-03-16T05:11:41;2.40;99.90
33803;DHT22;20110;53.120;5.786;2023-03-16T05:14:07;2.40;99.90
33803;DHT22;20110;53.120;5.786;2023-03-16T05:16:33;2.40;99.90
33803;DHT22;20110;53.120;5.786;2023-03-16T05:18:59;2.40;99.90
33803;DHT22;20110;53.120;5.786;2023-03-16T05:21:26;2.40;99.90
33803;DHT22;20110;53.120;5.786;2023-03-16T05:23:54;2.30;99.90
33803;DHT22;20110;53.120;5.786;2023-03-16T05:26:20;2.30;99.90
33803;DHT22;20110;53.120;5.786;2023-03-16T05:28:46;2.20;99.90
33803;DHT22;20110;53.120;5.786;2023-03-16T05:31:12;2.30;99.90
33803;DHT22;20110;53.120;5.786;2023-03-16T05:33:38;2.30;99.90
33803;DHT22;20110;53.120;5.786;2023-03-16T05:36:04;2.30;99.90
33803;DHT22;20110;53.120;5.786;2023-03-16T05:38:30;2.40;99.90
33803;DHT22;20110;53.120;5.786;2023-03-16T05:40:56;2.40;99.90
33803;DHT22;20110;53.120;5.786;2023-03-16T05:43:26;2.40;99.90
33803;DHT22;20110;53.120;5.786;2023-03-16T05:45:55;2.30;99.90
33803;DHT22;20110;53.120;5.786;2023-03-16T05:48:22;2.30;99.90
33803;DHT22;20110;53.120;5.786;2023-03-16T05:50:51;2.40;99.90
33803;DHT22;20110;53.120;5.786;2023-03-16T05:53:17;2.40;99.90
33803;DHT22;20110;53.120;5.786;2023-03-16T05:55:44;2.30;99.90
33803;DHT22;20110;53.120;5.786;2023-03-16T05:58:09;2.40;99.90
33803;DHT22;20110;53.120;5.786;2023-03-16T06:00:36;2.40;99.90
33803;DHT22;20110;53.120;5.786;2023-03-16T06:03:04;2.40;99.90
33803;DHT22;20110;53.120;5.786;2023-03-16T06:05:30;2.40;99.90
33803;DHT22;20110;53.120;5.786;2023-03-16T06:07:56;2.40;99.90
33803;DHT22;20110;53.120;5.786;2023-03-16T06:10:23;2.50;99.90
33803;DHT22;20110;53.120;5.786;2023-03-16T06:12:50;2.50;99.90
33803;DHT22;20110;53.120;5.786;2023-03-16T06:15:16;2.50;99.90
33803;DHT22;20110;53.120;5.786;2023-03-16T06:17:42;2.60;99.90
33803;DHT22;20110;53.120;5.786;2023-03-16T06:20:10;2.50;99.90
33803;DHT22;20110;53.120;5.786;2023-03-16T06:22:39;2.50;99.90
33803;DHT22;20110;53.120;5.786;2023-03-16T06:25:07;2.50;99.90
33803;DHT22;20110;53.120;5.786;2023-03-16T06:27:35;2.50;99.90
33803;DHT22;20110;53.120;5.786;2023-03-16T06:30:01;2.50;99.90
33803;DHT22;20110;53.120;5.786;2023-03-16T06:32:27;2.50;99.90
33803;DHT22;20110;53.120;5.786;2023-03-16T06:34:53;2.60;99.90
33803;DHT22;20110;53.120;5.786;2023-03-16T06:37:19;2.50;99.90
33803;DHT22;20110;53.120;5.786;2023-03-16T06:39:44;2.40;99.90
33803;DHT22;20110;53.120;5.786;2023-03-16T06:42:10;2.50;99.90
33803;DHT22;20110;53.120;5.786;2023-03-16T06:44:36;2.60;99.90
33803;DHT22;20110;53.120;5.786;2023-03-16T06:47:02;2.50;99.90
33803;DHT22;20110;53.120;5.786;2023-03-16T06:49:29;2.60;99.90
33803;DHT22;20110;53.120;5.786;2023-03-16T06:51:57;2.60;99.90
33803;DHT22;20110;53.120;5.786;2023-03-16T06:54:23;2.60;99.90
33803;DHT22;20110;53.120;5.786;2023-03-16T06:56:49;2.60;99.90
33803;DHT22;20110;53.120;5.786;2023-03-16T06:59:16;2.60;99.90
33803;DHT22;20110;53.120;5.786;2023-03-16T07:01:42;2.60;99.90
33803;DHT22;20110;53.120;5.786;2023-03-16T07:04:09;2.60;99.90
33803;DHT22;20110;53.120;5.786;2023-03-16T07:06:37;2.60;99.90
33803;DHT22;20110;53.120;5.786;2023-03-16T07:09:03;2.60;99.90
33803;DHT22;20110;53.120;5.786;2023-03-16T07:11:37;2.60;99.90
33803;DHT22;20110;53.120;5.786;2023-03-16T07:14:04;2.70;99.90
33803;DHT22;20110;53.120;5.786;2023-03-16T07:16:29;2.70;99.90
33803;DHT22;20110;53.120;5.786;2023-03-16T07:18:56;2.70;99.90
33803;DHT22;20110;53.120;5.786;2023-03-16T07:21:22;2.70;99.90
33803;DHT22;20110;53.120;5.786;2023-03-16T07:23:49;2.70;99.90
33803;DHT22;20110;53.120;5.786;2023-03-16T07:26:16;2.70;99.90
33803;DHT22;20110;53.120;5.786;2023-03-16T07:28:42;2.70;99.90
33803;DHT22;20110;53.120;5.786;2023-03-16T07:31:08;2.70;99.90
33803;DHT22;20110;53.120;5.786;2023-03-16T07:33:34;2.70;99.90
33803;DHT22;20110;53.120;5.786;2023-03-16T07:36:01;2.80;99.90
33803;DHT22;20110;53.120;5.786;2023-03-16T07:38:33;2.80;99.90
33803;DHT22;20110;53.120;5.786;2023-03-16T07:41:01;2.90;99.90
33803;DHT22;20110;53.120;5.786;2023-03-16T07:43:26;2.80;99.90
33803;DHT22;20110;53.120;5.786;2023-03-16T07:45:53;3.00;99.90
33803;DHT22;20110;53.120;5.786;2023-03-16T07:48:20;2.80;99.90
33803;DHT22;20110;53.120;5.786;2023-03-16T07:50:47;2.80;99.90
33803;DHT22;20110;53.120;5.786;2023-03-16T07:53:13;2.90;99.90
33803;DHT22;20110;53.120;5.786;2023-03-16T07:55:43;3.00;99.90
33803;DHT22;20110;53.120;5.786;2023-03-16T07:58:10;2.90;99.90
33803;DHT22;20110;53.120;5.786;2023-03-16T08:00:37;2.90;99.90
33803;DHT22;20110;53.120;5.786;2023-03-16T08:03:04;2.90;99.90
33803;DHT22;20110;53.120;5.786;2023-03-16T08:05:30;2.90;99.90
33803;DHT22;20110;53.120;5.786;2023-03-16T08:07:59;2.90;99.90
33803;DHT22;20110;53.120;5.786;2023-03-16T08:10:28;2.90;99.90
33803;DHT22;20110;53.120;5.786;2023-03-16T08:12:54;2.90;99.90
33803;DHT22;20110;53.120;5.786;2023-03-16T08:15:20;2.90;99.90
33803;DHT22;20110;53.120;5.786;2023-03-16T08:17:46;2.80;99.90
33803;DHT22;20110;53.120;5.786;2023-03-16T08:20:13;3.00;99.90
33803;DHT22;20110;53.120;5.786;2023-03-16T08:22:41;2.90;99.90
33803;DHT22;20110;53.120;5.786;2023-03-16T08:25:11;2.80;99.90
33803;DHT22;20110;53.120;5.786;2023-03-16T08:27:38;2.90;99.90
33803;DHT22;20110;53.120;5.786;2023-03-16T08:30:06;2.90;99.90
33803;DHT22;20110;53.120;5.786;2023-03-16T08:32:36;3.00;99.90
33803;DHT22;20110;53.120;5.786;2023-03-16T08:35:05;3.00;99.90
33803;DHT22;20110;53.120;5.786;2023-03-16T08:37:32;3.00;99.90
33803;DHT22;20110;53.120;5.786;2023-03-16T08:39:58;3.00;99.90
33803;DHT22;20110;53.120;5.786;2023-03-16T08:42:25;2.90;99.90
33803;DHT22;20110;53.120;5.786;2023-03-16T08:44:53;3.00;99.90
33803;DHT22;20110;53.120;5.786;2023-03-16T08:47:23;3.00;99.90
33803;DHT22;20110;53.120;5.786;2023-03-16T08:49:50;3.10;99.90
33803;DHT22;20110;53.120;5.786;2023-03-16T08:52:16;3.10;99.90
33803;DHT22;20110;53.120;5.786;2023-03-16T08:54:42;3.10;99.90
33803;DHT22;20110;53.120;5.786;2023-03-16T08:57:08;3.10;99.90
33803;DHT22;20110;53.120;5.786;2023-03-16T08:59:35;3.20;99.90
33803;DHT22;20110;53.120;5.786;2023-03-16T09:02:01;3.20;99.90
33803;DHT22;20110;53.120;5.786;2023-03-16T09:04:29;3.30;99.90
33803;DHT22;20110;53.120;5.786;2023-03-16T09:06:55;3.30;99.90
33803;DHT22;20110;53.120;5.786;2023-03-16T09:09:21;3.30;99.90
33803;DHT22;20110;53.120;5.786;2023-03-16T09:11:47;3.40;99.90
33803;DHT22;20110;53.120;5.786;2023-03-16T09:14:14;3.40;99.90
33803;DHT22;20110;53.120;5.786;2023-03-16T09:16:40;3.30;99.90
33803;DHT22;20110;53.120;5.786;2023-03-16T09:19:06;3.60;99.90
33803;DHT22;20110;53.120;5.786;2023-03-16T09:21:32;3.50;99.90
33803;DHT22;20110;53.120;5.786;2023-03-16T09:24:00;3.60;99.90
33803;DHT22;20110;53.120;5.786;2023-03-16T09:26:26;3.50;99.90
33803;DHT22;20110;53.120;5.786;2023-03-16T09:28:53;3.40;99.90
33803;DHT22;20110;53.120;5.786;2023-03-16T09:31:20;3.50;99.90
33803;DHT22;20110;53.120;5.786;2023-03-16T09:33:47;3.40;99.90
33803;DHT22;20110;53.120;5.786;2023-03-16T09:36:13;3.40;99.90
33803;DHT22;20110;53.120;5.786;2023-03-16T09:38:40;3.50;99.90
33803;DHT22;20110;53.120;5.786;2023-03-16T09:42:03;3.60;99.90
33803;DHT22;20110;53.120;5.786;2023-03-16T09:47:26;3.50;99.90
33803;DHT22;20110;53.120;5.786;2023-03-16T09:50:01;3.50;99.90
33803;DHT22;20110;53.120;5.786;2023-03-16T09:55:34;3.60;99.90
33803;DHT22;20110;53.120;5.786;2023-03-16T09:58:05;3.60;99.90
33803;DHT22;20110;53.120;5.786;2023-03-16T10:00:52;3.60;99.90
33803;DHT22;20110;53.120;5.786;2023-03-16T10:06:54;3.70;99.90
33803;DHT22;20110;53.120;5.786;2023-03-16T10:12:42;3.80;99.90
33803;DHT22;20110;53.120;5.786;2023-03-16T10:15:18;3.80;99.90
33803;DHT22;20110;53.120;5.786;2023-03-16T10:18:03;3.90;99.90
33803;DHT22;20110;53.120;5.786;2023-03-16T10:20:35;3.90;99.90
33803;DHT22;20110;53.120;5.786;2023-03-16T10:23:22;4.10;99.90
33803;DHT22;20110;53.120;5.786;2023-03-16T10:25:53;4.10;99.90
33803;DHT22;20110;53.120;5.786;2023-03-16T10:28:33;4.20;99.90
33803;DHT22;20110;53.120;5.786;2023-03-16T10:31:02;4.30;99.90
33803;DHT22;20110;53.120;5.786;2023-03-16T10:33:31;4.40;99.90
33803;DHT22;20110;53.120;5.786;2023-03-16T10:36:35;4.50;99.90
33803;DHT22;20110;53.120;5.786;2023-03-16T10:39:12;4.50;99.90
33803;DHT22;20110;53.120;5.786;2023-03-16T10:41:42;4.60;99.90
33803;DHT22;20110;53.120;5.786;2023-03-16T10:44:21;4.70;99.90
33803;DHT22;20110;53.120;5.786;2023-03-16T10:47:00;4.70;99.90
33803;DHT22;20110;53.120;5.786;2023-03-16T10:49:35;4.70;99.90
33803;DHT22;20110;53.120;5.786;2023-03-16T10:52:17;4.80;99.90
33803;DHT22;20110;53.120;5.786;2023-03-16T10:55:05;4.80;99.90
33803;DHT22;20110;53.120;5.786;2023-03-16T10:57:39;4.90;99.90
33803;DHT22;20110;53.120;5.786;2023-03-16T11:02:38;4.90;99.90
33803;DHT22;20110;53.120;5.786;2023-03-16T11:05:34;5.00;99.90
33803;DHT22;20110;53.120;5.786;2023-03-16T11:08:06;5.10;99.90
33803;DHT22;20110;53.120;5.786;2023-03-16T11:10:40;5.10;99.90
33803;DHT22;20110;53.120;5.786;2023-03-16T11:13:15;5.30;99.90
33803;DHT22;20110;53.120;5.786;2023-03-16T11:16:00;5.40;99.90
33803;DHT22;20110;53.120;5.786;2023-03-16T11:18:45;5.50;99.90
33803;DHT22;20110;53.120;5.786;2023-03-16T11:24:52;5.70;99.90
33803;DHT22;20110;53.120;5.786;2023-03-16T11:27:29;5.90;99.90
33803;DHT22;20110;53.120;5.786;2023-03-16T11:32:56;6.50;99.90
33803;DHT22;20110;53.120;5.786;2023-03-16T11:38:40;6.70;99.90
33803;DHT22;20110;53.120;5.786;2023-03-16T11:41:40;6.90;99.90
33803;DHT22;20110;53.120;5.786;2023-03-16T11:44:36;6.90;99.90
33803;DHT22;20110;53.120;5.786;2023-03-16T11:50:16;6.80;99.90
33803;DHT22;20110;53.120;5.786;2023-03-16T11:56:06;6.70;99.90
33803;DHT22;20110;53.120;5.786;2023-03-16T12:04:50;6.80;99.90
33803;DHT22;20110;53.120;5.786;2023-03-16T12:07:40;6.80;99.90
33803;DHT22;20110;53.120;5.786;2023-03-16T12:10:23;6.70;99.90
33803;DHT22;20110;53.120;5.786;2023-03-16T12:13:45;6.80;99.90
33803;DHT22;20110;53.120;5.786;2023-03-16T12:22:16;6.80;99.90
33803;DHT22;20110;53.120;5.786;2023-03-16T12:24:47;6.70;99.90
33803;DHT22;20110;53.120;5.786;2023-03-16T12:27:20;6.80;99.90
33803;DHT22;20110;53.120;5.786;2023-03-16T12:36:00;6.90;99.90
33803;DHT22;20110;53.120;5.786;2023-03-16T12:50:17;6.80;99.90
33803;DHT22;20110;53.120;5.786;2023-03-16T12:52:49;7.00;99.90
33803;DHT22;20110;53.120;5.786;2023-03-16T12:58:04;7.10;99.90
33803;DHT22;20110;53.120;5.786;2023-03-16T13:00:39;7.10;99.90
33803;DHT22;20110;53.120;5.786;2023-03-16T13:03:15;7.20;99.90
33803;DHT22;20110;53.120;5.786;2023-03-16T13:05:49;7.10;99.90
33803;DHT22;20110;53.120;5.786;2023-03-16T13:08:19;7.10;99.90
33803;DHT22;20110;53.120;5.786;2023-03-16T13:11:21;7.30;99.90
33803;DHT22;20110;53.120;5.786;2023-03-16T13:13:50;7.30;99.90
33803;DHT22;20110;53.120;5.786;2023-03-16T13:16:33;7.70;99.90
33803;DHT22;20110;53.120;5.786;2023-03-16T13:19:26;7.70;99.90
33803;DHT22;20110;53.120;5.786;2023-03-16T13:22:18;7.80;99.90
33803;DHT22;20110;53.120;5.786;2023-03-16T13:24:51;8.30;99.90
33803;DHT22;20110;53.120;5.786;2023-03-16T13:27:38;8.20;99.90
33803;DHT22;20110;53.120;5.786;2023-03-16T13:32:54;8.30;99.90
33803;DHT22;20110;53.120;5.786;2023-03-16T13:35:26;8.50;99.90
33803;DHT22;20110;53.120;5.786;2023-03-16T13:37:54;8.30;99.90
33803;DHT22;20110;53.120;5.786;2023-03-16T13:40:27;8.30;99.90
33803;DHT22;20110;53.120;5.786;2023-03-16T13:42:53;8.30;99.90
33803;DHT22;20110;53.120;5.786;2023-03-16T13:45:32;8.50;99.90
33803;DHT22;20110;53.120;5.786;2023-03-16T13:48:01;8.60;99.90
33803;DHT22;20110;53.120;5.786;2023-03-16T13:50:34;8.60;99.90
33803;DHT22;20110;53.120;5.786;2023-03-16T13:53:29;8.60;99.90
33803;DHT22;20110;53.120;5.786;2023-03-16T13:55:58;8.70;99.90
33803;DHT22;20110;53.120;5.786;2023-03-16T13:58:35;8.50;99.90
33803;DHT22;20110;53.120;5.786;2023-03-16T14:01:13;8.40;99.90
33803;DHT22;20110;53.120;5.786;2023-03-16T14:03:48;8.50;99.90
33803;DHT22;20110;53.120;5.786;2023-03-16T14:06:49;8.30;99.90
33803;DHT22;20110;53.120;5.786;2023-03-16T14:09:20;8.20;99.90
33803;DHT22;20110;53.120;5.786;2023-03-16T14:11:51;8.30;99.90
33803;DHT22;20110;53.120;5.786;2023-03-16T14:14:39;8.20;99.90
33803;DHT22;20110;53.120;5.786;2023-03-16T14:17:14;8.20;99.90
33803;DHT22;20110;53.120;5.786;2023-03-16T14:19:52;8.30;99.90
33803;DHT22;20110;53.120;5.786;2023-03-16T14:22:28;8.10;99.90
33803;DHT22;20110;53.120;5.786;2023-03-16T14:24:59;8.50;99.90
33803;DHT22;20110;53.120;5.786;2023-03-16T14:27:41;8.20;99.90
33803;DHT22;20110;53.120;5.786;2023-03-16T14:30:16;8.30;99.90
33803;DHT22;20110;53.120;5.786;2023-03-16T14:33:05;8.40;99.90
33803;DHT22;20110;53.120;5.786;2023-03-16T14:35:53;8.40;99.90
33803;DHT22;20110;53.120;5.786;2023-03-16T14:38:31;8.60;99.90
33803;DHT22;20110;53.120;5.786;2023-03-16T14:41:09;8.60;99.90
33803;DHT22;20110;53.120;5.786;2023-03-16T14:43:45;8.60;99.90
33803;DHT22;20110;53.120;5.786;2023-03-16T14:46:33;8.70;99.90
33803;DHT22;20110;53.120;5.786;2023-03-16T14:51:44;8.70;99.90
33803;DHT22;20110;53.120;5.786;2023-03-16T14:54:14;8.60;99.90
33803;DHT22;20110;53.120;5.786;2023-03-16T14:56:46;8.70;99.90
33803;DHT22;20110;53.120;5.786;2023-03-16T14:59:15;8.70;99.90
33803;DHT22;20110;53.120;5.786;2023-03-16T15:01:41;8.70;99.90
33803;DHT22;20110;53.120;5.786;2023-03-16T15:04:13;8.80;99.90
33803;DHT22;20110;53.120;5.786;2023-03-16T15:06:41;8.80;99.90
33803;DHT22;20110;53.120;5.786;2023-03-16T15:09:23;8.80;99.90
33803;DHT22;20110;53.120;5.786;2023-03-16T15:11:52;8.80;99.90
33803;DHT22;20110;53.120;5.786;2023-03-16T15:14:20;8.70;99.90
33803;DHT22;20110;53.120;5.786;2023-03-16T15:17:06;8.70;99.80
33803;DHT22;20110;53.120;5.786;2023-03-16T15:19:33;8.70;99.90
33803;DHT22;20110;53.120;5.786;2023-03-16T15:21:59;8.60;99.70
33803;DHT22;20110;53.120;5.786;2023-03-16T15:24:27;8.70;99.90
33803;DHT22;20110;53.120;5.786;2023-03-16T15:26:55;8.80;99.80
33803;DHT22;20110;53.120;5.786;2023-03-16T15:29:21;8.80;99.90
33803;DHT22;20110;53.120;5.786;2023-03-16T15:31:47;8.80;99.90
33803;DHT22;20110;53.120;5.786;2023-03-16T15:34:13;8.80;99.90
33803;DHT22;20110;53.120;5.786;2023-03-16T15:36:38;8.80;99.60
33803;DHT22;20110;53.120;5.786;2023-03-16T15:39:04;8.90;99.70
33803;DHT22;20110;53.120;5.786;2023-03-16T15:41:32;8.90;99.90
33803;DHT22;20110;53.120;5.786;2023-03-16T15:43:58;8.90;99.90
33803;DHT22;20110;53.120;5.786;2023-03-16T15:46:26;8.80;99.30
33803;DHT22;20110;53.120;5.786;2023-03-16T15:48:52;8.80;99.70
33803;DHT22;20110;53.120;5.786;2023-03-16T15:51:26;8.80;99.90
33803;DHT22;20110;53.120;5.786;2023-03-16T15:54:02;8.80;99.90
33803;DHT22;20110;53.120;5.786;2023-03-16T15:56:33;8.80;99.10
33803;DHT22;20110;53.120;5.786;2023-03-16T15:59:04;8.80;99.70
33803;DHT22;20110;53.120;5.786;2023-03-16T16:01:40;8.70;99.70
33803;DHT22;20110;53.120;5.786;2023-03-16T16:04:15;8.80;99.80
33803;DHT22;20110;53.120;5.786;2023-03-16T16:06:45;8.80;99.30
33803;DHT22;20110;53.120;5.786;2023-03-16T16:09:12;8.80;98.80
33803;DHT22;20110;53.120;5.786;2023-03-16T16:11:39;8.80;99.40
33803;DHT22;20110;53.120;5.786;2023-03-16T16:14:13;8.70;99.70
33803;DHT22;20110;53.120;5.786;2023-03-16T16:16:42;8.60;99.50
33803;DHT22;20110;53.120;5.786;2023-03-16T16:19:14;8.60;99.90
33803;DHT22;20110;53.120;5.786;2023-03-16T16:21:41;8.60;99.60
33803;DHT22;20110;53.120;5.786;2023-03-16T16:24:08;8.60;99.90
33803;DHT22;20110;53.120;5.786;2023-03-16T16:26:40;8.60;99.90
33803;DHT22;20110;53.120;5.786;2023-03-16T16:29:18;8.60;99.90
33803;DHT22;20110;53.120;5.786;2023-03-16T16:31:49;8.60;99.80
33803;DHT22;20110;53.120;5.786;2023-03-16T16:34:20;8.40;99.90
33803;DHT22;20110;53.120;5.786;2023-03-16T16:36:48;8.40;99.90
33803;DHT22;20110;53.120;5.786;2023-03-16T16:39:15;8.30;99.90
33803;DHT22;20110;53.120;5.786;2023-03-16T16:41:42;8.30;99.90
33803;DHT22;20110;53.120;5.786;2023-03-16T16:44:17;8.30;99.90
33803;DHT22;20110;53.120;5.786;2023-03-16T16:46:47;8.40;99.90
33803;DHT22;20110;53.120;5.786;2023-03-16T16:49:28;8.40;99.90
33803;DHT22;20110;53.120;5.786;2023-03-16T16:51:56;8.40;99.90
33803;DHT22;20110;53.120;5.786;2023-03-16T16:54:24;8.40;99.90
33803;DHT22;20110;53.120;5.786;2023-03-16T16:56:54;8.30;99.90
33803;DHT22;20110;53.120;5.786;2023-03-16T16:59:29;8.30;99.90
33803;DHT22;20110;53.120;5.786;2023-03-16T17:01:59;8.30;99.90
33803;DHT22;20110;53.120;5.786;2023-03-16T17:04:28;8.20;99.90
33803;DHT22;20110;53.120;5.786;2023-03-16T17:06:59;8.20;99.90
33803;DHT22;20110;53.120;5.786;2023-03-16T17:09:27;8.20;99.90
33803;DHT22;20110;53.120;5.786;2023-03-16T17:11:57;8.10;99.90
33803;DHT22;20110;53.120;5.786;2023-03-16T17:14:25;8.00;99.90
33803;DHT22;20110;53.120;5.786;2023-03-16T17:16:57;7.90;99.90
33803;DHT22;20110;53.120;5.786;2023-03-16T17:19:27;7.90;99.90
33803;DHT22;20110;53.120;5.786;2023-03-16T17:21:54;7.90;99.90
33803;DHT22;20110;53.120;5.786;2023-03-16T17:24:22;7.90;99.90
33803;DHT22;20110;53.120;5.786;2023-03-16T17:26:59;7.90;99.90